sensor_id;sensor_type;location;lat;lon;timestamp;P1;durP1;ratioP1;P2;durP2;ratioP2
36799;SDS011;22752;51.960;5.886;2023-02-26T00:01:39;11.97;;;2.53;;
36799;SDS011;22752;51.960;5.886;2023-02-26T00:04:05;10.33;;;3.10;;
36799;SDS011;22752;51.960;5.886;2023-02-26T00:06:33;9.70;;;2.30;;
36799;SDS011;22752;51.960;5.886;2023-02-26T00:09:00;9.00;;;3.30;;
36799;SDS011;22752;51.960;5.886;2023-02-26T00:11:27;9.67;;;2.80;;
36799;SDS011;22752;51.960;5.886;2023-02-26T00:13:52;9.73;;;2.57;;
36799;SDS011;22752;51.960;5.886;2023-02-26T00:16:26;10.23;;;2.70;;
36799;SDS011;22752;51.960;5.886;2023-02-26T00:18:57;10.63;;;2.70;;
36799;SDS011;22752;51.960;5.886;2023-02-26T00:21:25;12.60;;;2.87;;
36799;SDS011;22752;51.960;5.886;2023-02-26T00:23:52;10.40;;;3.40;;
36799;SDS011;22752;51.960;5.886;2023-02-26T00:26:19;9.57;;;2.37;;
36799;SDS011;22752;51.960;5.886;2023-02-26T00:28:45;11.33;;;2.77;;
36799;SDS011;22752;51.960;5.886;2023-02-26T00:31:13;9.33;;;2.53;;
36799;SDS011;22752;51.960;5.886;2023-02-26T00:33:39;9.43;;;2.67;;
36799;SDS011;22752;51.960;5.886;2023-02-26T00:36:32;15.40;;;2.67;;
36799;SDS011;22752;51.960;5.886;2023-02-26T00:42:07;13.63;;;2.53;;
36799;SDS011;22752;51.960;5.886;2023-02-26T00:44:33;11.20;;;2.47;;
36799;SDS011;22752;51.960;5.886;2023-02-26T00:47:04;11.87;;;2.60;;
36799;SDS011;22752;51.960;5.886;2023-02-26T00:50:00;10.90;;;2.40;;
36799;SDS011;22752;51.960;5.886;2023-02-26T00:55:40;14.83;;;2.80;;
36799;SDS011;22752;51.960;5.886;2023-02-26T00:58:06;7.93;;;2.10;;
36799;SDS011;22752;51.960;5.886;2023-02-26T01:00:32;9.23;;;2.03;;
36799;SDS011;22752;51.960;5.886;2023-02-26T01:02:57;10.20;;;2.87;;
36799;SDS011;22752;51.960;5.886;2023-02-26T01:05:23;10.90;;;2.70;;
36799;SDS011;22752;51.960;5.886;2023-02-26T01:10:34;9.53;;;2.23;;
36799;SDS011;22752;51.960;5.886;2023-02-26T01:13:00;17.90;;;3.07;;
36799;SDS011;22752;51.960;5.886;2023-02-26T01:15:26;10.17;;;2.10;;
36799;SDS011;22752;51.960;5.886;2023-02-26T01:17:54;10.33;;;2.03;;
36799;SDS011;22752;51.960;5.886;2023-02-26T01:20:39;12.10;;;1.77;;
36799;SDS011;22752;51.960;5.886;2023-02-26T01:23:22;13.40;;;2.00;;
36799;SDS011;22752;51.960;5.886;2023-02-26T01:25:51;9.13;;;2.23;;
36799;SDS011;22752;51.960;5.886;2023-02-26T01:28:38;8.07;;;2.20;;
36799;SDS011;22752;51.960;5.886;2023-02-26T01:31:04;10.23;;;2.53;;
36799;SDS011;22752;51.960;5.886;2023-02-26T01:33:40;7.60;;;1.60;;
36799;SDS011;22752;51.960;5.886;2023-02-26T01:41:32;8.60;;;2.13;;
36799;SDS011;22752;51.960;5.886;2023-02-26T01:44:21;9.63;;;1.87;;
36799;SDS011;22752;51.960;5.886;2023-02-26T01:47:09;12.02;;;2.33;;
36799;SDS011;22752;51.960;5.886;2023-02-26T01:49:44;8.40;;;1.87;;
36799;SDS011;22752;51.960;5.886;2023-02-26T01:54:58;9.77;;;2.67;;
36799;SDS011;22752;51.960;5.886;2023-02-26T01:57:23;6.70;;;1.93;;
36799;SDS011;22752;51.960;5.886;2023-02-26T01:59:50;11.57;;;2.03;;
36799;SDS011;22752;51.960;5.886;2023-02-26T02:02:18;4.20;;;1.70;;
36799;SDS011;22752;51.960;5.886;2023-02-26T02:04:46;7.40;;;1.57;;
36799;SDS011;22752;51.960;5.886;2023-02-26T02:07:13;9.40;;;2.47;;
36799;SDS011;22752;51.960;5.886;2023-02-26T02:09:39;4.57;;;1.93;;
36799;SDS011;22752;51.960;5.886;2023-02-26T02:14:45;9.87;;;1.80;;
36799;SDS011;22752;51.960;5.886;2023-02-26T02:20:18;7.67;;;2.27;;
36799;SDS011;22752;51.960;5.886;2023-02-26T02:25:39;11.83;;;2.30;;
36799;SDS011;22752;51.960;5.886;2023-02-26T02:33:46;10.97;;;1.87;;
36799;SDS011;22752;51.960;5.886;2023-02-26T02:36:18;4.87;;;1.80;;
36799;SDS011;22752;51.960;5.886;2023-02-26T02:39:46;6.87;;;1.70;;
36799;SDS011;22752;51.960;5.886;2023-02-26T02:41:53;9.83;;;2.00;;
36799;SDS011;22752;51.960;5.886;2023-02-26T02:44:45;9.43;;;2.13;;
36799;SDS011;22752;51.960;5.886;2023-02-26T02:47:14;8.83;;;1.80;;
36799;SDS011;22752;51.960;5.886;2023-02-26T02:49:45;7.43;;;1.97;;
36799;SDS011;22752;51.960;5.886;2023-02-26T02:52:26;5.40;;;1.40;;
36799;SDS011;22752;51.960;5.886;2023-02-26T02:55:16;8.27;;;2.40;;
36799;SDS011;22752;51.960;5.886;2023-02-26T02:57:58;8.87;;;2.20;;
36799;SDS011;22752;51.960;5.886;2023-02-26T03:00:29;13.20;;;1.80;;
36799;SDS011;22752;51.960;5.886;2023-02-26T03:05:26;7.67;;;1.80;;
36799;SDS011;22752;51.960;5.886;2023-02-26T03:07:53;10.47;;;2.40;;
36799;SDS011;22752;51.960;5.886;2023-02-26T03:10:26;10.00;;;1.70;;
36799;SDS011;22752;51.960;5.886;2023-02-26T03:12:52;6.67;;;2.00;;
36799;SDS011;22752;51.960;5.886;2023-02-26T03:15:20;7.37;;;2.20;;
36799;SDS011;22752;51.960;5.886;2023-02-26T03:21:29;7.83;;;1.73;;
36799;SDS011;22752;51.960;5.886;2023-02-26T03:24:05;7.00;;;1.80;;
36799;SDS011;22752;51.960;5.886;2023-02-26T03:26:33;8.20;;;1.40;;
36799;SDS011;22752;51.960;5.886;2023-02-26T03:29:16;10.57;;;2.00;;
36799;SDS011;22752;51.960;5.886;2023-02-26T03:31:52;9.67;;;2.07;;
36799;SDS011;22752;51.960;5.886;2023-02-26T03:34:24;12.80;;;1.87;;
36799;SDS011;22752;51.960;5.886;2023-02-26T03:39:24;7.70;;;1.83;;
36799;SDS011;22752;51.960;5.886;2023-02-26T03:44:29;7.55;;;1.35;;
36799;SDS011;22752;51.960;5.886;2023-02-26T03:49:28;12.77;;;2.17;;
36799;SDS011;22752;51.960;5.886;2023-02-26T03:52:02;11.67;;;1.87;;
36799;SDS011;22752;51.960;5.886;2023-02-26T03:54:33;8.23;;;1.50;;
36799;SDS011;22752;51.960;5.886;2023-02-26T03:57:02;8.83;;;2.27;;
36799;SDS011;22752;51.960;5.886;2023-02-26T03:59:28;8.03;;;1.43;;
36799;SDS011;22752;51.960;5.886;2023-02-26T04:04:33;5.77;;;1.40;;
36799;SDS011;22752;51.960;5.886;2023-02-26T04:07:06;6.47;;;1.40;;
36799;SDS011;22752;51.960;5.886;2023-02-26T04:09:34;5.57;;;1.30;;
36799;SDS011;22752;51.960;5.886;2023-02-26T04:12:00;4.80;;;1.50;;
36799;SDS011;22752;51.960;5.886;2023-02-26T04:14:25;6.60;;;1.27;;
36799;SDS011;22752;51.960;5.886;2023-02-26T04:16:51;6.27;;;1.40;;
36799;SDS011;22752;51.960;5.886;2023-02-26T04:19:17;9.00;;;1.87;;
36799;SDS011;22752;51.960;5.886;2023-02-26T04:21:43;6.63;;;1.50;;
36799;SDS011;22752;51.960;5.886;2023-02-26T04:24:09;7.77;;;1.60;;
36799;SDS011;22752;51.960;5.886;2023-02-26T04:26:35;5.60;;;1.20;;
36799;SDS011;22752;51.960;5.886;2023-02-26T04:29:01;5.13;;;1.40;;
36799;SDS011;22752;51.960;5.886;2023-02-26T04:31:26;6.97;;;1.60;;
36799;SDS011;22752;51.960;5.886;2023-02-26T04:33:52;8.17;;;1.60;;
36799;SDS011;22752;51.960;5.886;2023-02-26T04:36:18;7.37;;;1.40;;
36799;SDS011;22752;51.960;5.886;2023-02-26T04:38:43;5.17;;;1.47;;
36799;SDS011;22752;51.960;5.886;2023-02-26T04:41:09;6.83;;;1.70;;
36799;SDS011;22752;51.960;5.886;2023-02-26T04:43:34;8.10;;;1.63;;
36799;SDS011;22752;51.960;5.886;2023-02-26T04:46:01;7.83;;;1.80;;
36799;SDS011;22752;51.960;5.886;2023-02-26T04:48:27;5.27;;;1.20;;
36799;SDS011;22752;51.960;5.886;2023-02-26T04:50:53;4.93;;;1.03;;
36799;SDS011;22752;51.960;5.886;2023-02-26T04:53:19;8.00;;;1.10;;
36799;SDS011;22752;51.960;5.886;2023-02-26T04:55:46;6.50;;;1.40;;
36799;SDS011;22752;51.960;5.886;2023-02-26T04:58:12;7.70;;;1.20;;
36799;SDS011;22752;51.960;5.886;2023-02-26T05:00:38;7.07;;;1.60;;
36799;SDS011;22752;51.960;5.886;2023-02-26T05:03:04;10.50;;;1.57;;
36799;SDS011;22752;51.960;5.886;2023-02-26T05:05:30;10.17;;;1.30;;
36799;SDS011;22752;51.960;5.886;2023-02-26T05:07:56;6.83;;;1.40;;
36799;SDS011;22752;51.960;5.886;2023-02-26T05:10:22;5.47;;;1.07;;
36799;SDS011;22752;51.960;5.886;2023-02-26T05:12:48;4.17;;;1.13;;
36799;SDS011;22752;51.960;5.886;2023-02-26T05:15:13;9.00;;;1.70;;
36799;SDS011;22752;51.960;5.886;2023-02-26T05:17:39;3.60;;;0.90;;
36799;SDS011;22752;51.960;5.886;2023-02-26T05:20:05;6.00;;;1.40;;
36799;SDS011;22752;51.960;5.886;2023-02-26T05:22:34;9.53;;;1.30;;
36799;SDS011;22752;51.960;5.886;2023-02-26T05:25:00;9.23;;;2.07;;
36799;SDS011;22752;51.960;5.886;2023-02-26T05:27:26;5.87;;;1.50;;
36799;SDS011;22752;51.960;5.886;2023-02-26T05:29:52;9.03;;;1.70;;
36799;SDS011;22752;51.960;5.886;2023-02-26T05:32:17;7.83;;;1.37;;
36799;SDS011;22752;51.960;5.886;2023-02-26T05:34:43;7.37;;;1.10;;
36799;SDS011;22752;51.960;5.886;2023-02-26T05:37:09;7.63;;;1.13;;
36799;SDS011;22752;51.960;5.886;2023-02-26T05:39:34;12.67;;;1.80;;
36799;SDS011;22752;51.960;5.886;2023-02-26T05:42:00;8.20;;;1.57;;
36799;SDS011;22752;51.960;5.886;2023-02-26T05:44:25;6.87;;;1.23;;
36799;SDS011;22752;51.960;5.886;2023-02-26T05:46:51;3.30;;;0.90;;
36799;SDS011;22752;51.960;5.886;2023-02-26T05:49:17;5.27;;;1.17;;
36799;SDS011;22752;51.960;5.886;2023-02-26T05:51:42;4.57;;;1.23;;
36799;SDS011;22752;51.960;5.886;2023-02-26T05:54:08;9.50;;;1.50;;
36799;SDS011;22752;51.960;5.886;2023-02-26T05:56:34;3.40;;;0.90;;
36799;SDS011;22752;51.960;5.886;2023-02-26T05:59:00;11.57;;;1.53;;
36799;SDS011;22752;51.960;5.886;2023-02-26T06:01:27;9.53;;;1.50;;
36799;SDS011;22752;51.960;5.886;2023-02-26T06:03:52;6.47;;;1.20;;
36799;SDS011;22752;51.960;5.886;2023-02-26T06:06:18;6.73;;;1.10;;
36799;SDS011;22752;51.960;5.886;2023-02-26T06:08:45;3.60;;;1.10;;
36799;SDS011;22752;51.960;5.886;2023-02-26T06:11:11;10.23;;;1.40;;
36799;SDS011;22752;51.960;5.886;2023-02-26T06:13:37;7.63;;;1.03;;
36799;SDS011;22752;51.960;5.886;2023-02-26T06:16:03;7.37;;;1.13;;
36799;SDS011;22752;51.960;5.886;2023-02-26T06:18:29;3.03;;;1.20;;
36799;SDS011;22752;51.960;5.886;2023-02-26T06:20:56;6.77;;;1.47;;
36799;SDS011;22752;51.960;5.886;2023-02-26T06:23:22;7.73;;;1.50;;
36799;SDS011;22752;51.960;5.886;2023-02-26T06:25:49;3.73;;;1.10;;
36799;SDS011;22752;51.960;5.886;2023-02-26T06:28:15;7.47;;;1.33;;
36799;SDS011;22752;51.960;5.886;2023-02-26T06:30:41;7.10;;;1.30;;
36799;SDS011;22752;51.960;5.886;2023-02-26T06:33:06;6.63;;;1.03;;
36799;SDS011;22752;51.960;5.886;2023-02-26T06:35:32;7.27;;;1.00;;
36799;SDS011;22752;51.960;5.886;2023-02-26T06:37:58;7.33;;;1.33;;
36799;SDS011;22752;51.960;5.886;2023-02-26T06:40:23;5.47;;;1.30;;
36799;SDS011;22752;51.960;5.886;2023-02-26T06:42:49;8.70;;;1.43;;
36799;SDS011;22752;51.960;5.886;2023-02-26T06:45:15;9.33;;;1.13;;
36799;SDS011;22752;51.960;5.886;2023-02-26T06:47:40;6.60;;;1.20;;
36799;SDS011;22752;51.960;5.886;2023-02-26T06:50:06;5.47;;;1.13;;
36799;SDS011;22752;51.960;5.886;2023-02-26T06:52:32;9.27;;;1.10;;
36799;SDS011;22752;51.960;5.886;2023-02-26T06:54:59;6.53;;;1.37;;
36799;SDS011;22752;51.960;5.886;2023-02-26T06:57:24;8.77;;;1.00;;
36799;SDS011;22752;51.960;5.886;2023-02-26T06:59:50;6.47;;;0.90;;
36799;SDS011;22752;51.960;5.886;2023-02-26T07:02:17;4.63;;;1.03;;
36799;SDS011;22752;51.960;5.886;2023-02-26T07:04:44;7.80;;;1.30;;
36799;SDS011;22752;51.960;5.886;2023-02-26T07:07:10;6.90;;;1.00;;
36799;SDS011;22752;51.960;5.886;2023-02-26T07:09:36;4.47;;;1.07;;
36799;SDS011;22752;51.960;5.886;2023-02-26T07:12:02;7.37;;;1.30;;
36799;SDS011;22752;51.960;5.886;2023-02-26T07:14:28;3.17;;;0.90;;
36799;SDS011;22752;51.960;5.886;2023-02-26T07:16:54;4.90;;;1.00;;
36799;SDS011;22752;51.960;5.886;2023-02-26T07:19:20;8.87;;;1.70;;
36799;SDS011;22752;51.960;5.886;2023-02-26T07:21:46;4.60;;;1.30;;
36799;SDS011;22752;51.960;5.886;2023-02-26T07:24:12;4.47;;;0.90;;
36799;SDS011;22752;51.960;5.886;2023-02-26T07:26:38;4.00;;;0.90;;
36799;SDS011;22752;51.960;5.886;2023-02-26T07:29:04;7.33;;;1.23;;
36799;SDS011;22752;51.960;5.886;2023-02-26T07:31:30;5.80;;;1.17;;
36799;SDS011;22752;51.960;5.886;2023-02-26T07:33:56;2.80;;;0.70;;
36799;SDS011;22752;51.960;5.886;2023-02-26T07:36:21;7.37;;;1.10;;
36799;SDS011;22752;51.960;5.886;2023-02-26T07:38:47;3.07;;;1.00;;
36799;SDS011;22752;51.960;5.886;2023-02-26T07:41:13;7.73;;;1.07;;
36799;SDS011;22752;51.960;5.886;2023-02-26T07:43:38;10.57;;;1.10;;
36799;SDS011;22752;51.960;5.886;2023-02-26T07:46:04;3.47;;;0.90;;
36799;SDS011;22752;51.960;5.886;2023-02-26T07:48:30;6.70;;;1.20;;
36799;SDS011;22752;51.960;5.886;2023-02-26T07:50:56;5.47;;;1.10;;
36799;SDS011;22752;51.960;5.886;2023-02-26T07:53:21;8.87;;;1.80;;
36799;SDS011;22752;51.960;5.886;2023-02-26T07:55:47;9.13;;;1.33;;
36799;SDS011;22752;51.960;5.886;2023-02-26T07:58:13;5.17;;;1.37;;
36799;SDS011;22752;51.960;5.886;2023-02-26T08:00:39;5.93;;;1.33;;
36799;SDS011;22752;51.960;5.886;2023-02-26T08:03:04;6.90;;;1.20;;
36799;SDS011;22752;51.960;5.886;2023-02-26T08:05:30;5.77;;;1.00;;
36799;SDS011;22752;51.960;5.886;2023-02-26T08:07:56;5.20;;;1.30;;
36799;SDS011;22752;51.960;5.886;2023-02-26T08:10:22;5.30;;;1.20;;
36799;SDS011;22752;51.960;5.886;2023-02-26T08:12:47;5.00;;;1.33;;
36799;SDS011;22752;51.960;5.886;2023-02-26T08:15:13;7.67;;;1.47;;
36799;SDS011;22752;51.960;5.886;2023-02-26T08:17:39;6.70;;;1.60;;
36799;SDS011;22752;51.960;5.886;2023-02-26T08:20:06;3.63;;;1.10;;
36799;SDS011;22752;51.960;5.886;2023-02-26T08:22:32;8.17;;;1.50;;
36799;SDS011;22752;51.960;5.886;2023-02-26T08:24:58;4.73;;;1.30;;
36799;SDS011;22752;51.960;5.886;2023-02-26T08:27:24;7.40;;;1.17;;
36799;SDS011;22752;51.960;5.886;2023-02-26T08:29:50;9.73;;;1.40;;
36799;SDS011;22752;51.960;5.886;2023-02-26T08:32:16;5.33;;;1.30;;
36799;SDS011;22752;51.960;5.886;2023-02-26T08:34:43;4.97;;;1.40;;
36799;SDS011;22752;51.960;5.886;2023-02-26T08:37:10;7.53;;;1.30;;
36799;SDS011;22752;51.960;5.886;2023-02-26T08:39:36;3.53;;;1.03;;
36799;SDS011;22752;51.960;5.886;2023-02-26T08:42:06;3.93;;;0.93;;
36799;SDS011;22752;51.960;5.886;2023-02-26T08:44:33;7.70;;;1.10;;
36799;SDS011;22752;51.960;5.886;2023-02-26T08:46:59;6.53;;;1.50;;
36799;SDS011;22752;51.960;5.886;2023-02-26T08:49:24;7.53;;;1.47;;
36799;SDS011;22752;51.960;5.886;2023-02-26T08:51:50;8.07;;;1.90;;
36799;SDS011;22752;51.960;5.886;2023-02-26T08:54:16;6.90;;;1.40;;
36799;SDS011;22752;51.960;5.886;2023-02-26T08:56:42;5.77;;;1.13;;
36799;SDS011;22752;51.960;5.886;2023-02-26T08:59:07;5.87;;;1.63;;
36799;SDS011;22752;51.960;5.886;2023-02-26T09:01:35;3.43;;;1.00;;
36799;SDS011;22752;51.960;5.886;2023-02-26T09:04:01;6.60;;;1.10;;
36799;SDS011;22752;51.960;5.886;2023-02-26T09:06:27;7.47;;;1.50;;
36799;SDS011;22752;51.960;5.886;2023-02-26T09:08:53;4.60;;;1.10;;
36799;SDS011;22752;51.960;5.886;2023-02-26T09:11:18;7.27;;;1.40;;
36799;SDS011;22752;51.960;5.886;2023-02-26T09:13:44;5.00;;;1.27;;
36799;SDS011;22752;51.960;5.886;2023-02-26T09:16:09;3.73;;;1.30;;
36799;SDS011;22752;51.960;5.886;2023-02-26T09:18:35;6.47;;;1.30;;
36799;SDS011;22752;51.960;5.886;2023-02-26T09:21:01;5.87;;;1.20;;
36799;SDS011;22752;51.960;5.886;2023-02-26T09:23:27;4.70;;;1.27;;
36799;SDS011;22752;51.960;5.886;2023-02-26T09:25:53;6.80;;;1.27;;
36799;SDS011;22752;51.960;5.886;2023-02-26T09:28:20;2.77;;;0.77;;
36799;SDS011;22752;51.960;5.886;2023-02-26T09:30:50;3.83;;;1.10;;
36799;SDS011;22752;51.960;5.886;2023-02-26T09:33:16;8.27;;;0.77;;
36799;SDS011;22752;51.960;5.886;2023-02-26T09:35:42;1.43;;;0.70;;
36799;SDS011;22752;51.960;5.886;2023-02-26T09:38:08;3.77;;;1.00;;
36799;SDS011;22752;51.960;5.886;2023-02-26T09:40:46;3.50;;;0.97;;
36799;SDS011;22752;51.960;5.886;2023-02-26T09:45:42;4.37;;;0.90;;
36799;SDS011;22752;51.960;5.886;2023-02-26T09:48:10;4.37;;;0.90;;
36799;SDS011;22752;51.960;5.886;2023-02-26T09:50:41;3.40;;;0.73;;
36799;SDS011;22752;51.960;5.886;2023-02-26T09:56:03;4.20;;;0.70;;
36799;SDS011;22752;51.960;5.886;2023-02-26T09:58:33;4.43;;;0.73;;
36799;SDS011;22752;51.960;5.886;2023-02-26T10:03:54;2.87;;;0.80;;
36799;SDS011;22752;51.960;5.886;2023-02-26T10:12:08;3.03;;;0.90;;
36799;SDS011;22752;51.960;5.886;2023-02-26T10:20:37;3.93;;;0.97;;
36799;SDS011;22752;51.960;5.886;2023-02-26T10:23:31;5.73;;;1.03;;
36799;SDS011;22752;51.960;5.886;2023-02-26T10:26:18;4.10;;;0.70;;
36799;SDS011;22752;51.960;5.886;2023-02-26T10:37:20;4.33;;;0.80;;
36799;SDS011;22752;51.960;5.886;2023-02-26T10:40:13;2.13;;;0.63;;
36799;SDS011;22752;51.960;5.886;2023-02-26T10:45:56;6.27;;;1.07;;
36799;SDS011;22752;51.960;5.886;2023-02-26T10:51:36;6.17;;;0.93;;
36799;SDS011;22752;51.960;5.886;2023-02-26T10:54:05;2.93;;;0.80;;
36799;SDS011;22752;51.960;5.886;2023-02-26T10:56:37;4.93;;;0.80;;
36799;SDS011;22752;51.960;5.886;2023-02-26T10:59:02;4.90;;;1.10;;
36799;SDS011;22752;51.960;5.886;2023-02-26T11:01:29;3.47;;;1.00;;
36799;SDS011;22752;51.960;5.886;2023-02-26T11:03:57;4.17;;;0.83;;
36799;SDS011;22752;51.960;5.886;2023-02-26T11:06:37;6.53;;;0.97;;
36799;SDS011;22752;51.960;5.886;2023-02-26T11:09:23;3.80;;;0.73;;
36799;SDS011;22752;51.960;5.886;2023-02-26T11:14:31;4.30;;;1.10;;
36799;SDS011;22752;51.960;5.886;2023-02-26T11:16:58;2.00;;;0.70;;
36799;SDS011;22752;51.960;5.886;2023-02-26T11:19:35;5.40;;;1.30;;
36799;SDS011;22752;51.960;5.886;2023-02-26T11:22:06;2.33;;;0.87;;
36799;SDS011;22752;51.960;5.886;2023-02-26T11:24:41;3.33;;;1.00;;
36799;SDS011;22752;51.960;5.886;2023-02-26T11:27:15;3.13;;;1.00;;
36799;SDS011;22752;51.960;5.886;2023-02-26T11:29:47;3.43;;;0.90;;
36799;SDS011;22752;51.960;5.886;2023-02-26T11:32:19;7.05;;;0.90;;
36799;SDS011;22752;51.960;5.886;2023-02-26T11:34:48;3.63;;;0.90;;
36799;SDS011;22752;51.960;5.886;2023-02-26T11:37:19;4.33;;;1.00;;
36799;SDS011;22752;51.960;5.886;2023-02-26T11:39:55;2.03;;;0.70;;
36799;SDS011;22752;51.960;5.886;2023-02-26T11:42:22;4.33;;;1.00;;
36799;SDS011;22752;51.960;5.886;2023-02-26T11:44:49;2.23;;;0.90;;
36799;SDS011;22752;51.960;5.886;2023-02-26T11:47:16;1.53;;;0.70;;
36799;SDS011;22752;51.960;5.886;2023-02-26T11:49:53;2.13;;;0.70;;
36799;SDS011;22752;51.960;5.886;2023-02-26T11:52:40;5.03;;;1.23;;
36799;SDS011;22752;51.960;5.886;2023-02-26T11:55:27;4.13;;;1.00;;
36799;SDS011;22752;51.960;5.886;2023-02-26T11:57:57;3.40;;;0.90;;
36799;SDS011;22752;51.960;5.886;2023-02-26T12:00:31;1.27;;;0.57;;
36799;SDS011;22752;51.960;5.886;2023-02-26T12:03:02;5.23;;;1.53;;
36799;SDS011;22752;51.960;5.886;2023-02-26T12:05:39;2.17;;;0.73;;
36799;SDS011;22752;51.960;5.886;2023-02-26T12:08:07;1.40;;;0.70;;
36799;SDS011;22752;51.960;5.886;2023-02-26T12:10:53;3.30;;;0.67;;
36799;SDS011;22752;51.960;5.886;2023-02-26T12:13:37;3.87;;;0.53;;
36799;SDS011;22752;51.960;5.886;2023-02-26T12:25:21;2.80;;;0.83;;
36799;SDS011;22752;51.960;5.886;2023-02-26T12:55:33;2.80;;;0.80;;
36799;SDS011;22752;51.960;5.886;2023-02-26T13:06:56;2.13;;;0.67;;
36799;SDS011;22752;51.960;5.886;2023-02-26T13:15:26;4.47;;;0.90;;
36799;SDS011;22752;51.960;5.886;2023-02-26T13:18:03;3.40;;;0.90;;
36799;SDS011;22752;51.960;5.886;2023-02-26T13:20:31;3.57;;;0.80;;
36799;SDS011;22752;51.960;5.886;2023-02-26T13:23:01;2.73;;;0.60;;
36799;SDS011;22752;51.960;5.886;2023-02-26T13:28:03;2.10;;;0.93;;
36799;SDS011;22752;51.960;5.886;2023-02-26T13:30:46;2.67;;;0.80;;
36799;SDS011;22752;51.960;5.886;2023-02-26T13:33:16;2.73;;;0.60;;
36799;SDS011;22752;51.960;5.886;2023-02-26T13:35:44;2.33;;;0.60;;
36799;SDS011;22752;51.960;5.886;2023-02-26T13:49:46;2.17;;;0.90;;
36799;SDS011;22752;51.960;5.886;2023-02-26T13:52:49;3.23;;;0.90;;
36799;SDS011;22752;51.960;5.886;2023-02-26T14:03:52;2.47;;;0.70;;
36799;SDS011;22752;51.960;5.886;2023-02-26T14:14:39;1.67;;;1.10;;
36799;SDS011;22752;51.960;5.886;2023-02-26T14:19:44;1.53;;;0.60;;
36799;SDS011;22752;51.960;5.886;2023-02-26T14:22:41;1.13;;;0.70;;
36799;SDS011;22752;51.960;5.886;2023-02-26T14:27:45;5.37;;;1.07;;
36799;SDS011;22752;51.960;5.886;2023-02-26T14:32:53;2.27;;;0.83;;
36799;SDS011;22752;51.960;5.886;2023-02-26T14:35:33;2.37;;;0.77;;
36799;SDS011;22752;51.960;5.886;2023-02-26T14:38:09;3.60;;;0.80;;
36799;SDS011;22752;51.960;5.886;2023-02-26T14:43:43;1.17;;;0.60;;
36799;SDS011;22752;51.960;5.886;2023-02-26T14:46:17;1.37;;;0.70;;
36799;SDS011;22752;51.960;5.886;2023-02-26T14:48:43;1.87;;;0.60;;
36799;SDS011;22752;51.960;5.886;2023-02-26T14:54:05;4.23;;;1.00;;
36799;SDS011;22752;51.960;5.886;2023-02-26T14:57:01;2.90;;;0.70;;
36799;SDS011;22752;51.960;5.886;2023-02-26T15:13:46;3.77;;;0.90;;
36799;SDS011;22752;51.960;5.886;2023-02-26T15:16:44;0.90;;;0.53;;
36799;SDS011;22752;51.960;5.886;2023-02-26T15:22:20;2.90;;;0.60;;
36799;SDS011;22752;51.960;5.886;2023-02-26T15:24:55;3.13;;;0.60;;
36799;SDS011;22752;51.960;5.886;2023-02-26T15:27:26;1.75;;;0.45;;
36799;SDS011;22752;51.960;5.886;2023-02-26T15:29:55;3.80;;;0.67;;
36799;SDS011;22752;51.960;5.886;2023-02-26T15:32:26;4.53;;;0.87;;
36799;SDS011;22752;51.960;5.886;2023-02-26T15:34:55;2.57;;;0.60;;
36799;SDS011;22752;51.960;5.886;2023-02-26T15:37:24;1.70;;;0.60;;
36799;SDS011;22752;51.960;5.886;2023-02-26T15:39:52;0.70;;;0.30;;
36799;SDS011;22752;51.960;5.886;2023-02-26T15:42:18;1.77;;;0.60;;
36799;SDS011;22752;51.960;5.886;2023-02-26T15:44:46;4.73;;;0.93;;
36799;SDS011;22752;51.960;5.886;2023-02-26T15:47:14;2.93;;;0.80;;
36799;SDS011;22752;51.960;5.886;2023-02-26T15:49:42;3.60;;;0.80;;
36799;SDS011;22752;51.960;5.886;2023-02-26T15:52:14;2.67;;;0.60;;
36799;SDS011;22752;51.960;5.886;2023-02-26T15:54:44;2.13;;;0.70;;
36799;SDS011;22752;51.960;5.886;2023-02-26T15:57:13;2.73;;;0.97;;
36799;SDS011;22752;51.960;5.886;2023-02-26T15:59:47;3.87;;;1.00;;
36799;SDS011;22752;51.960;5.886;2023-02-26T16:02:20;2.43;;;1.00;;
36799;SDS011;22752;51.960;5.886;2023-02-26T16:04:49;2.13;;;0.80;;
36799;SDS011;22752;51.960;5.886;2023-02-26T16:07:17;1.90;;;0.70;;
36799;SDS011;22752;51.960;5.886;2023-02-26T16:09:44;3.20;;;0.80;;
36799;SDS011;22752;51.960;5.886;2023-02-26T16:12:34;2.57;;;0.90;;
36799;SDS011;22752;51.960;5.886;2023-02-26T16:15:03;2.83;;;0.80;;
36799;SDS011;22752;51.960;5.886;2023-02-26T16:17:42;2.93;;;0.80;;
36799;SDS011;22752;51.960;5.886;2023-02-26T16:20:14;2.20;;;0.60;;
36799;SDS011;22752;51.960;5.886;2023-02-26T16:22:46;1.65;;;0.70;;
36799;SDS011;22752;51.960;5.886;2023-02-26T16:25:19;4.30;;;0.87;;
36799;SDS011;22752;51.960;5.886;2023-02-26T16:27:59;1.40;;;0.60;;
36799;SDS011;22752;51.960;5.886;2023-02-26T16:30:41;5.23;;;0.93;;
36799;SDS011;22752;51.960;5.886;2023-02-26T16:33:10;2.07;;;0.80;;
36799;SDS011;22752;51.960;5.886;2023-02-26T16:35:47;4.13;;;0.80;;
36799;SDS011;22752;51.960;5.886;2023-02-26T16:38:22;1.90;;;0.80;;
36799;SDS011;22752;51.960;5.886;2023-02-26T16:41:04;5.23;;;1.20;;
36799;SDS011;22752;51.960;5.886;2023-02-26T16:51:31;1.90;;;0.88;;
36799;SDS011;22752;51.960;5.886;2023-02-26T16:54:02;3.93;;;1.10;;
36799;SDS011;22752;51.960;5.886;2023-02-26T16:56:38;3.73;;;0.83;;
36799;SDS011;22752;51.960;5.886;2023-02-26T16:59:21;2.63;;;0.93;;
36799;SDS011;22752;51.960;5.886;2023-02-26T17:01:52;2.53;;;1.00;;
36799;SDS011;22752;51.960;5.886;2023-02-26T17:04:47;3.37;;;1.10;;
36799;SDS011;22752;51.960;5.886;2023-02-26T17:07:30;3.77;;;0.97;;
36799;SDS011;22752;51.960;5.886;2023-02-26T17:09:58;4.83;;;1.20;;
36799;SDS011;22752;51.960;5.886;2023-02-26T17:12:41;3.23;;;0.90;;
36799;SDS011;22752;51.960;5.886;2023-02-26T17:15:11;1.73;;;0.80;;
36799;SDS011;22752;51.960;5.886;2023-02-26T17:17:46;3.40;;;0.80;;
36799;SDS011;22752;51.960;5.886;2023-02-26T17:20:12;2.20;;;1.20;;
36799;SDS011;22752;51.960;5.886;2023-02-26T17:22:38;2.10;;;0.93;;
36799;SDS011;22752;51.960;5.886;2023-02-26T17:25:11;2.10;;;0.80;;
36799;SDS011;22752;51.960;5.886;2023-02-26T17:27:41;2.30;;;1.10;;
36799;SDS011;22752;51.960;5.886;2023-02-26T17:30:10;6.37;;;0.97;;
36799;SDS011;22752;51.960;5.886;2023-02-26T17:32:40;3.50;;;0.90;;
36799;SDS011;22752;51.960;5.886;2023-02-26T17:35:06;4.33;;;1.00;;
36799;SDS011;22752;51.960;5.886;2023-02-26T17:37:33;3.30;;;1.13;;
36799;SDS011;22752;51.960;5.886;2023-02-26T17:40:00;3.07;;;0.80;;
36799;SDS011;22752;51.960;5.886;2023-02-26T17:42:26;4.97;;;1.17;;
36799;SDS011;22752;51.960;5.886;2023-02-26T17:44:52;3.07;;;0.90;;
36799;SDS011;22752;51.960;5.886;2023-02-26T17:47:22;4.13;;;1.40;;
36799;SDS011;22752;51.960;5.886;2023-02-26T17:49:49;6.10;;;1.00;;
36799;SDS011;22752;51.960;5.886;2023-02-26T17:52:16;5.93;;;1.47;;
36799;SDS011;22752;51.960;5.886;2023-02-26T17:54:41;4.80;;;1.30;;
36799;SDS011;22752;51.960;5.886;2023-02-26T17:57:08;4.63;;;1.20;;
36799;SDS011;22752;51.960;5.886;2023-02-26T18:02:13;4.73;;;1.20;;
36799;SDS011;22752;51.960;5.886;2023-02-26T18:04:41;6.57;;;1.30;;
36799;SDS011;22752;51.960;5.886;2023-02-26T18:07:07;5.90;;;1.43;;
36799;SDS011;22752;51.960;5.886;2023-02-26T18:09:39;3.58;;;1.02;;
36799;SDS011;22752;51.960;5.886;2023-02-26T18:12:07;7.00;;;1.60;;
36799;SDS011;22752;51.960;5.886;2023-02-26T18:14:36;8.23;;;1.60;;
36799;SDS011;22752;51.960;5.886;2023-02-26T18:17:02;3.60;;;1.20;;
36799;SDS011;22752;51.960;5.886;2023-02-26T18:19:27;8.73;;;1.37;;
36799;SDS011;22752;51.960;5.886;2023-02-26T18:21:53;4.63;;;1.10;;
36799;SDS011;22752;51.960;5.886;2023-02-26T18:24:19;6.13;;;1.43;;
36799;SDS011;22752;51.960;5.886;2023-02-26T18:26:44;6.37;;;1.70;;
36799;SDS011;22752;51.960;5.886;2023-02-26T18:29:10;7.80;;;1.47;;
36799;SDS011;22752;51.960;5.886;2023-02-26T18:31:35;6.57;;;1.60;;